Crescent Mills, Massachusetts
Current Conditions -  °F | °C
As of 3:53 PM on Tuesday 27 Jan 2015 (Local Time) from KBAF Reporting Station
Few Clouds Few Clouds  
Wind Chill:   Ceiling: Unl
Heat Index: 21°   Visibility: 9mi
Dew Point:   Wind: 24mph
Humidity: 57%   Direction: 340°NNW
Pressure: 29.6"   Gusts: 36mph
Location:  42.3047°N, 72.879°W
Report Text: KBAF 272053Z 34021G31KT 9SM FEW075 M06/M13 A2960 RMK AO2 PK WND 32031/2052 SLP033 60000 T10611133 53006 $
Loading
Personal Weather Stations






























Interactive Weather Map New forecast layout! Learn more

10-Day Weather Forecast

Advertisements
Track Severe Weather on mobile